createdAt,value
2017-07-24T00:00:04.409Z,0
2017-07-24T00:01:04.444Z,0
2017-07-24T00:02:04.496Z,0
2017-07-24T00:03:04.512Z,0
2017-07-24T00:04:04.541Z,0
2017-07-24T00:05:04.596Z,0
2017-07-24T00:06:04.603Z,0
2017-07-24T00:07:04.698Z,0
2017-07-24T00:08:04.700Z,0
2017-07-24T00:09:04.745Z,0
2017-07-24T00:10:04.870Z,0
2017-07-24T00:11:04.797Z,0
2017-07-24T00:12:04.833Z,0
2017-07-24T00:13:04.880Z,0
2017-07-24T00:14:04.905Z,0
2017-07-24T00:15:04.944Z,0
2017-07-24T00:16:04.965Z,0
2017-07-24T00:17:04.985Z,0
2017-07-24T00:18:05.040Z,0
2017-07-24T00:19:05.070Z,0
2017-07-24T00:20:05.128Z,0
2017-07-24T00:21:05.109Z,0
2017-07-24T00:22:05.217Z,0
2017-07-24T00:23:05.196Z,0
2017-07-24T00:24:05.224Z,0
2017-07-24T00:25:05.327Z,0
2017-07-24T00:26:05.326Z,0
2017-07-24T00:27:05.354Z,0
2017-07-24T00:28:05.395Z,0
2017-07-24T00:29:05.402Z,0
2017-07-24T00:30:05.456Z,0
2017-07-24T00:31:05.495Z,0
2017-07-24T00:32:05.515Z,0
2017-07-24T00:33:05.560Z,0
2017-07-24T00:34:05.601Z,0
2017-07-24T00:35:05.628Z,0
2017-07-24T00:36:05.667Z,0
2017-07-24T00:37:05.708Z,0
2017-07-24T00:38:05.715Z,0
2017-07-24T00:39:05.762Z,0
2017-07-24T00:40:05.810Z,0
2017-07-24T00:41:05.833Z,0
2017-07-24T00:42:05.867Z,0
2017-07-24T00:43:05.919Z,0
2017-07-24T00:44:05.921Z,0
2017-07-24T00:45:05.998Z,0
2017-07-24T00:46:06.009Z,0
2017-07-24T00:47:06.041Z,0
2017-07-24T00:48:06.067Z,0
2017-07-24T00:49:06.112Z,0
2017-07-24T00:50:06.152Z,0
2017-07-24T00:51:06.196Z,0
2017-07-24T00:52:06.211Z,0
2017-07-24T00:53:06.247Z,0
2017-07-24T00:54:06.315Z,0
2017-07-24T00:55:06.345Z,0
2017-07-24T00:56:06.356Z,0
2017-07-24T00:57:06.371Z,0
2017-07-24T00:58:06.420Z,0
2017-07-24T00:59:06.464Z,0
2017-07-24T01:00:06.518Z,0
2017-07-24T01:01:06.528Z,0
2017-07-24T01:02:06.565Z,0
2017-07-24T01:03:06.605Z,0
2017-07-24T01:04:06.620Z,0
2017-07-24T01:05:06.666Z,0
2017-07-24T01:06:06.681Z,0
2017-07-24T01:07:06.718Z,0
2017-07-24T01:08:06.773Z,0
2017-07-24T01:09:06.805Z,0
2017-07-24T01:10:06.808Z,0
2017-07-24T01:11:06.852Z,0
2017-07-24T01:12:06.900Z,0
2017-07-24T01:13:06.927Z,0
2017-07-24T01:14:06.973Z,0
2017-07-24T01:15:07.035Z,0
2017-07-24T01:16:07.026Z,0
2017-07-24T01:17:07.074Z,0
2017-07-24T01:18:07.111Z,0
2017-07-24T01:19:07.111Z,0
2017-07-24T01:20:07.211Z,0
2017-07-24T01:21:07.228Z,0
2017-07-24T01:22:07.237Z,0
2017-07-24T01:23:07.297Z,0
2017-07-24T01:24:07.321Z,0
2017-07-24T01:25:07.336Z,0
2017-07-24T01:26:07.387Z,0
2017-07-24T01:27:07.429Z,0
2017-07-24T01:28:07.458Z,0
2017-07-24T01:29:07.500Z,0
2017-07-24T01:30:07.536Z,0
2017-07-24T01:31:07.566Z,0
2017-07-24T01:32:07.587Z,0
2017-07-24T01:33:07.625Z,0
2017-07-24T01:34:07.663Z,0
2017-07-24T01:35:07.695Z,0
2017-07-24T01:36:07.728Z,0
2017-07-24T01:37:07.770Z,0
2017-07-24T01:38:07.808Z,0
2017-07-24T01:39:07.812Z,0
2017-07-24T01:40:07.869Z,0
2017-07-24T01:41:07.915Z,0
2017-07-24T01:42:07.917Z,0
2017-07-24T01:43:07.971Z,0
2017-07-24T01:44:08.019Z,0
2017-07-24T01:45:08.265Z,0
2017-07-24T01:46:08.070Z,0
2017-07-24T01:47:08.125Z,0
2017-07-24T01:48:08.127Z,0
2017-07-24T01:49:08.172Z,0
2017-07-24T01:50:08.184Z,0
2017-07-24T01:51:08.219Z,0
2017-07-24T01:52:08.273Z,0
2017-07-24T01:53:08.299Z,0
2017-07-24T01:54:08.322Z,0
2017-07-24T01:55:08.380Z,0
2017-07-24T01:56:08.427Z,0
2017-07-24T01:57:08.437Z,0
2017-07-24T01:58:08.499Z,0
2017-07-24T01:59:08.527Z,0
2017-07-24T02:00:08.722Z,0
2017-07-24T02:01:08.584Z,0
2017-07-24T02:02:08.640Z,0
2017-07-24T02:03:08.651Z,0
2017-07-24T02:04:08.683Z,0
2017-07-24T02:05:08.728Z,0
2017-07-24T02:06:08.746Z,0
2017-07-24T02:07:08.799Z,0
2017-07-24T02:08:08.836Z,0
2017-07-24T02:09:08.850Z,0
2017-07-24T02:10:08.900Z,0
2017-07-24T02:11:08.904Z,0
2017-07-24T02:12:08.951Z,0
2017-07-24T02:13:09.005Z,0
2017-07-24T02:14:09.033Z,0
2017-07-24T02:15:09.105Z,0
2017-07-24T02:16:09.103Z,0
2017-07-24T02:17:09.146Z,0
2017-07-24T02:18:09.167Z,0
2017-07-24T02:19:09.217Z,0
2017-07-24T02:20:09.238Z,0
2017-07-24T02:21:09.276Z,0
2017-07-24T02:22:09.301Z,0
2017-07-24T02:23:09.335Z,0
2017-07-24T02:24:09.375Z,0
2017-07-24T02:25:09.424Z,0
2017-07-24T02:26:09.433Z,0
2017-07-24T02:27:09.482Z,0
2017-07-24T02:28:09.514Z,0
2017-07-24T02:29:09.521Z,0
2017-07-24T02:30:09.576Z,0
2017-07-24T02:31:09.635Z,0
2017-07-24T02:32:09.634Z,0
2017-07-24T02:33:09.672Z,0
2017-07-24T02:34:09.713Z,0
2017-07-24T02:35:09.816Z,0
2017-07-24T02:36:09.781Z,0
2017-07-24T02:37:09.811Z,0
2017-07-24T02:38:09.833Z,0
2017-07-24T02:39:09.883Z,0
2017-07-24T02:40:09.919Z,0
2017-07-24T02:41:09.924Z,0
2017-07-24T02:42:09.980Z,4
2017-07-24T02:43:10.003Z,4
2017-07-24T02:44:10.026Z,4
2017-07-24T02:45:10.071Z,4
2017-07-24T02:46:10.123Z,0
2017-07-24T02:47:10.128Z,4
2017-07-24T02:48:10.168Z,4
2017-07-24T02:49:10.212Z,4
2017-07-24T02:50:10.233Z,8
2017-07-24T02:51:10.267Z,4
2017-07-24T02:52:10.317Z,8
2017-07-24T02:53:10.353Z,12
2017-07-24T02:54:10.383Z,12
2017-07-24T02:55:10.404Z,16
2017-07-24T02:56:10.438Z,16
2017-07-24T02:57:10.491Z,16
2017-07-24T02:58:10.517Z,20
2017-07-24T02:59:10.556Z,24
2017-07-24T03:00:10.569Z,28
2017-07-24T03:01:10.612Z,28
2017-07-24T03:02:10.668Z,32
2017-07-24T03:03:10.689Z,32
2017-07-24T03:04:10.711Z,36
2017-07-24T03:05:10.711Z,40
2017-07-24T03:06:10.758Z,48
2017-07-24T03:07:10.850Z,56
2017-07-24T03:08:10.838Z,64
2017-07-24T03:09:10.891Z,72
2017-07-24T03:10:10.915Z,76
2017-07-24T03:11:10.929Z,88
2017-07-24T03:12:10.959Z,96
2017-07-24T03:13:11.033Z,100
2017-07-24T03:14:11.045Z,108
2017-07-24T03:15:11.075Z,116
2017-07-24T03:16:11.130Z,128
2017-07-24T03:17:11.166Z,140
2017-07-24T03:18:11.188Z,148
2017-07-24T03:19:11.230Z,160
2017-07-24T03:20:11.210Z,172
2017-07-24T03:21:11.313Z,184
2017-07-24T03:22:11.333Z,188
2017-07-24T03:23:11.326Z,200
2017-07-24T03:24:11.390Z,208
2017-07-24T03:25:11.411Z,220
2017-07-24T03:26:11.464Z,228
2017-07-24T03:27:11.506Z,236
2017-07-24T03:28:11.532Z,248
2017-07-24T03:29:11.567Z,264
2017-07-24T03:30:11.578Z,288
2017-07-24T03:31:11.653Z,304
2017-07-24T03:32:11.672Z,328
2017-07-24T03:33:11.693Z,348
2017-07-24T03:34:11.731Z,380
2017-07-24T03:35:11.798Z,408
2017-07-24T03:36:11.800Z,440
2017-07-24T03:37:11.808Z,484
2017-07-24T03:38:11.840Z,532
2017-07-24T03:39:11.907Z,564
2017-07-24T03:40:11.942Z,592
2017-07-24T03:41:11.964Z,628
2017-07-24T03:42:12.003Z,676
2017-07-24T03:43:12.025Z,740
2017-07-24T03:44:12.067Z,808
2017-07-24T03:45:12.077Z,864
2017-07-24T03:46:12.099Z,908
2017-07-24T03:47:12.140Z,944
2017-07-24T03:48:12.197Z,972
2017-07-24T03:49:12.239Z,984
2017-07-24T03:50:12.200Z,960
2017-07-24T03:51:12.301Z,944
2017-07-24T03:52:12.332Z,956
2017-07-24T03:53:12.352Z,1000
2017-07-24T03:54:12.379Z,1052
2017-07-24T03:55:12.399Z,1120
2017-07-24T03:56:12.469Z,1208
2017-07-24T03:57:12.498Z,1288
2017-07-24T03:58:12.518Z,1324
2017-07-24T03:59:12.571Z,1380
2017-07-24T04:00:31.787Z,1424
2017-07-24T04:01:12.795Z,1448
2017-07-24T04:02:12.781Z,1500
2017-07-24T04:03:12.818Z,1596
2017-07-24T04:04:12.858Z,1716
2017-07-24T04:05:12.888Z,1852
2017-07-24T04:06:12.947Z,2028
2017-07-24T04:07:12.979Z,2172
2017-07-24T04:08:12.978Z,2280
2017-07-24T04:09:13.036Z,2336
2017-07-24T04:10:13.080Z,2360
2017-07-24T04:11:13.082Z,2416
2017-07-24T04:12:13.111Z,2408
2017-07-24T04:13:13.169Z,2376
2017-07-24T04:14:13.198Z,2352
2017-07-24T04:15:13.238Z,2324
2017-07-24T04:16:13.231Z,2392
2017-07-24T04:17:13.286Z,2440
2017-07-24T04:18:13.346Z,2584
2017-07-24T04:19:13.356Z,2628
2017-07-24T04:20:13.395Z,2588
2017-07-24T04:21:13.438Z,2572
2017-07-24T04:22:13.475Z,2712
2017-07-24T04:23:13.497Z,2852
2017-07-24T04:24:13.516Z,2892
2017-07-24T04:25:13.579Z,2872
2017-07-24T04:26:13.597Z,2876
2017-07-24T04:27:13.640Z,2864
2017-07-24T04:28:13.666Z,2848
2017-07-24T04:29:13.700Z,2844
2017-07-24T04:30:13.727Z,2904
2017-07-24T04:31:13.780Z,3180
2017-07-24T04:32:13.795Z,3116
2017-07-24T04:33:13.832Z,2928
2017-07-24T04:34:13.877Z,2956
2017-07-24T04:35:13.913Z,2972
2017-07-24T04:36:13.925Z,3080
2017-07-24T04:37:13.999Z,3108
2017-07-24T04:38:14.015Z,3028
2017-07-24T04:39:14.104Z,3060
2017-07-24T04:40:14.090Z,3204
2017-07-24T04:41:14.108Z,3164
2017-07-24T04:42:14.164Z,3164
2017-07-24T04:43:14.200Z,3220
2017-07-24T04:44:14.286Z,3260
2017-07-24T04:45:14.273Z,3296
2017-07-24T04:46:14.280Z,3368
2017-07-24T04:47:14.333Z,3432
2017-07-24T04:48:14.355Z,3520
2017-07-24T04:49:14.407Z,3584
2017-07-24T04:50:14.438Z,3732
2017-07-24T04:51:14.452Z,3844
2017-07-24T04:52:14.486Z,3900
2017-07-24T04:53:14.542Z,3936
2017-07-24T04:54:14.576Z,3820
2017-07-24T04:55:14.592Z,3764
2017-07-24T04:56:14.621Z,3748
2017-07-24T04:57:14.672Z,3776
2017-07-24T04:58:14.690Z,3780
2017-07-24T04:59:14.743Z,3824
2017-07-24T05:00:14.925Z,3908
2017-07-24T05:01:14.949Z,3984
2017-07-24T05:02:14.856Z,4080
2017-07-24T05:03:14.910Z,4212
2017-07-24T05:04:14.896Z,4308
2017-07-24T05:05:14.959Z,4448
2017-07-24T05:06:14.990Z,4644
2017-07-24T05:07:15.032Z,4728
2017-07-24T05:08:15.052Z,4900
2017-07-24T05:09:15.080Z,4968
2017-07-24T05:10:15.130Z,5016
2017-07-24T05:11:15.172Z,5028
2017-07-24T05:12:15.203Z,5060
2017-07-24T05:13:15.227Z,5304
2017-07-24T05:14:15.283Z,5388
2017-07-24T05:15:15.279Z,5400
2017-07-24T05:16:15.339Z,5332
2017-07-24T05:17:15.377Z,5392
2017-07-24T05:18:15.376Z,5528
2017-07-24T05:19:15.449Z,5500
2017-07-24T05:20:15.492Z,5388
2017-07-24T05:21:15.494Z,5308
2017-07-24T05:22:15.557Z,5216
2017-07-24T05:23:15.593Z,5212
2017-07-24T05:24:15.619Z,5260
2017-07-24T05:25:15.656Z,5188
2017-07-24T05:26:15.697Z,5504
2017-07-24T05:27:15.750Z,5516
2017-07-24T05:28:15.830Z,5592
2017-07-24T05:29:15.789Z,5608
2017-07-24T05:30:15.847Z,5588
2017-07-24T05:31:15.893Z,5468
2017-07-24T05:32:15.910Z,5716
2017-07-24T05:33:15.950Z,5908
2017-07-24T05:34:15.988Z,5736
2017-07-24T05:35:16.019Z,5688
2017-07-24T05:36:16.194Z,5400
2017-07-24T05:37:16.097Z,5184
2017-07-24T05:38:16.119Z,5140
2017-07-24T05:39:16.164Z,5308
2017-07-24T05:40:16.209Z,5568
2017-07-24T05:41:16.237Z,5776
2017-07-24T05:42:16.252Z,6072
2017-07-24T05:43:16.296Z,6180
2017-07-24T05:44:16.349Z,5816
2017-07-24T05:45:16.369Z,5820
2017-07-24T05:46:16.403Z,6408
2017-07-24T05:47:16.424Z,7756
2017-07-24T05:48:16.477Z,6800
2017-07-24T05:49:16.513Z,6004
2017-07-24T05:50:16.652Z,5940
2017-07-24T05:51:16.611Z,5864
2017-07-24T05:52:16.630Z,6220
2017-07-24T05:53:16.706Z,7072
2017-07-24T05:54:16.888Z,8308
2017-07-24T05:55:16.908Z,10832
2017-07-24T05:56:16.785Z,11792
2017-07-24T05:57:16.810Z,9728
2017-07-24T05:58:16.854Z,7784
2017-07-24T05:59:16.892Z,7296
2017-07-24T06:00:17.141Z,8416
2017-07-24T06:01:17.000Z,8792
2017-07-24T06:02:16.983Z,7880
2017-07-24T06:03:17.025Z,7488
2017-07-24T06:04:17.061Z,7592
2017-07-24T06:05:17.113Z,7400
2017-07-24T06:06:17.161Z,7028
2017-07-24T06:07:17.160Z,6920
2017-07-24T06:08:17.188Z,6868
2017-07-24T06:09:17.232Z,7132
2017-07-24T06:10:17.306Z,7332
2017-07-24T06:11:17.309Z,8408
2017-07-24T06:12:17.315Z,8120
2017-07-24T06:13:17.405Z,8516
2017-07-24T06:14:17.419Z,8364
2017-07-24T06:15:17.473Z,9148
2017-07-24T06:16:17.510Z,9036
2017-07-24T06:17:17.550Z,9192
2017-07-24T06:18:17.572Z,9980
2017-07-24T06:19:17.642Z,10564
2017-07-24T06:20:17.654Z,9920
2017-07-24T06:21:17.714Z,9988
2017-07-24T06:22:17.698Z,10796
2017-07-24T06:23:17.774Z,10132
2017-07-24T06:24:17.799Z,9792
2017-07-24T06:25:17.832Z,10972
2017-07-24T06:26:17.858Z,10896
2017-07-24T06:27:17.892Z,15264
2017-07-24T06:28:17.975Z,13328
2017-07-24T06:29:17.993Z,13948
2017-07-24T06:30:18.026Z,12660
2017-07-24T06:31:18.072Z,11772
2017-07-24T06:32:18.108Z,11076
2017-07-24T06:33:18.125Z,10904
2017-07-24T06:34:18.180Z,11592
2017-07-24T06:35:18.195Z,11092
2017-07-24T06:36:18.408Z,11012
2017-07-24T06:37:18.262Z,10024
2017-07-24T06:38:18.317Z,10056
2017-07-24T06:39:18.376Z,10024
2017-07-24T06:40:18.393Z,10016
2017-07-24T06:41:18.552Z,9444
2017-07-24T06:42:18.490Z,9352
2017-07-24T06:43:18.509Z,9216
2017-07-24T06:44:18.554Z,9300
2017-07-24T06:45:18.603Z,9440
2017-07-24T06:46:18.746Z,9828
2017-07-24T06:47:18.682Z,10096
2017-07-24T06:48:18.725Z,9944
2017-07-24T06:49:18.754Z,10024
2017-07-24T06:50:18.811Z,10008
2017-07-24T06:51:18.998Z,9636
2017-07-24T06:52:18.877Z,9776
2017-07-24T06:53:18.914Z,10432
2017-07-24T06:54:18.958Z,10476
2017-07-24T06:55:18.993Z,10760
2017-07-24T06:56:19.024Z,10976
2017-07-24T06:57:19.086Z,10824
2017-07-24T06:58:19.087Z,10440
2017-07-24T06:59:19.154Z,10552
2017-07-24T07:00:19.160Z,10644
2017-07-24T07:01:19.206Z,10492
2017-07-24T07:02:19.314Z,11076
2017-07-24T07:03:19.306Z,10956
2017-07-24T07:04:19.341Z,11356
2017-07-24T07:05:19.366Z,11344
2017-07-24T07:06:19.413Z,11256
2017-07-24T07:07:19.484Z,11424
2017-07-24T07:08:19.504Z,11412
2017-07-24T07:09:19.520Z,11336
2017-07-24T07:10:19.565Z,11364
2017-07-24T07:11:19.615Z,11368
2017-07-24T07:12:19.633Z,11276
2017-07-24T07:13:19.698Z,11568
2017-07-24T07:14:19.681Z,11704
2017-07-24T07:15:19.774Z,11724
2017-07-24T07:16:19.802Z,11552
2017-07-24T07:17:19.839Z,11532
2017-07-24T07:18:19.877Z,11688
2017-07-24T07:19:19.938Z,11660
2017-07-24T07:20:19.972Z,11396
2017-07-24T07:21:20.011Z,11824
2017-07-24T07:22:20.056Z,11824
2017-07-24T07:23:20.079Z,12092
2017-07-24T07:24:20.137Z,12432
2017-07-24T07:25:20.175Z,12816
2017-07-24T07:26:20.218Z,13188
2017-07-24T07:27:20.403Z,12920
2017-07-24T07:28:20.282Z,12792
2017-07-24T07:29:20.345Z,13092
2017-07-24T07:30:20.373Z,13308
2017-07-24T07:31:20.410Z,13508
2017-07-24T07:32:20.563Z,13796
2017-07-24T07:33:20.502Z,13620
2017-07-24T07:34:20.526Z,14816
2017-07-24T07:35:20.584Z,14400
2017-07-24T07:36:20.834Z,14464
2017-07-24T07:37:20.749Z,14240
2017-07-24T07:38:20.700Z,14208
2017-07-24T07:39:20.731Z,13192
2017-07-24T07:40:20.784Z,12872
2017-07-24T07:41:20.827Z,13500
2017-07-24T07:42:21.011Z,13988
2017-07-24T07:43:20.921Z,15232
2017-07-24T07:44:20.937Z,16128
2017-07-24T07:45:21.006Z,17056
2017-07-24T07:46:21.049Z,17568
2017-07-24T07:47:21.070Z,18720
2017-07-24T07:48:21.088Z,19520
2017-07-24T07:49:21.165Z,20384
2017-07-24T07:50:21.191Z,17280
2017-07-24T07:51:21.224Z,25152
2017-07-24T07:52:21.295Z,29568
2017-07-24T07:53:21.290Z,33888
2017-07-24T07:54:21.357Z,36192
2017-07-24T07:55:21.390Z,36512
2017-07-24T07:56:21.448Z,37824
2017-07-24T07:57:21.482Z,41344
2017-07-24T07:58:21.536Z,45856
2017-07-24T07:59:21.557Z,46144
2017-07-24T08:00:21.620Z,46240
2017-07-24T08:01:21.657Z,45504
2017-07-24T08:02:21.687Z,43040
2017-07-24T08:03:21.732Z,44512
2017-07-24T08:04:21.794Z,44032
2017-07-24T08:05:21.810Z,43744
2017-07-24T08:06:21.869Z,46176
2017-07-24T08:07:21.905Z,42752
2017-07-24T08:08:21.948Z,40416
2017-07-24T08:09:22.008Z,41920
2017-07-24T08:10:22.055Z,43808
2017-07-24T08:11:22.149Z,41792
2017-07-24T08:12:22.136Z,38912
2017-07-24T08:13:22.177Z,40608
2017-07-24T08:14:22.242Z,47104
2017-07-24T08:15:22.265Z,48288
2017-07-24T08:16:22.292Z,43840
2017-07-24T08:17:22.344Z,45792
2017-07-24T08:18:22.488Z,47936
2017-07-24T08:19:22.454Z,49696
2017-07-24T08:20:22.508Z,50592
2017-07-24T08:21:22.546Z,51072
2017-07-24T08:22:22.577Z,51264
2017-07-24T08:23:22.627Z,50976
2017-07-24T08:24:22.664Z,51168
2017-07-24T08:25:22.755Z,47776
2017-07-24T08:26:22.760Z,45696
2017-07-24T08:27:22.800Z,45312
2017-07-24T08:28:22.946Z,48000
2017-07-24T08:29:22.890Z,48288
2017-07-24T08:30:22.943Z,48480
2017-07-24T08:31:23.004Z,46784
2017-07-24T08:32:23.023Z,48928
2017-07-24T08:33:23.096Z,51008
2017-07-24T08:34:23.145Z,48896
2017-07-24T08:35:23.153Z,47936
2017-07-24T08:36:23.216Z,51136
2017-07-24T08:37:23.265Z,49056
2017-07-24T08:38:23.681Z,49536
2017-07-24T08:39:23.355Z,50176
2017-07-24T08:40:23.400Z,46336
2017-07-24T08:41:23.470Z,42624
2017-07-24T08:42:23.507Z,42272
2017-07-24T08:43:23.520Z,44512
2017-07-24T08:44:23.591Z,45248
2017-07-24T08:45:23.632Z,45408
2017-07-24T08:46:23.728Z,38848
2017-07-24T08:47:23.752Z,38976
2017-07-24T08:48:23.770Z,36384
2017-07-24T08:49:23.839Z,35648
2017-07-24T08:50:23.904Z,38432
2017-07-24T08:51:23.934Z,39808
2017-07-24T08:52:23.985Z,39392
2017-07-24T08:53:24.029Z,38176
2017-07-24T08:54:24.441Z,40544
2017-07-24T08:55:24.937Z,41056
2017-07-24T08:56:24.375Z,43232
2017-07-24T08:57:24.205Z,43872
2017-07-24T08:58:24.243Z,42240
2017-07-24T08:59:24.284Z,41792
2017-07-24T09:00:24.354Z,40832
2017-07-24T09:01:24.860Z,40832
2017-07-24T09:02:24.422Z,39200
2017-07-24T09:03:24.471Z,36032
2017-07-24T09:04:24.537Z,36992
2017-07-24T09:05:24.576Z,37312
2017-07-24T09:06:24.656Z,33824
2017-07-24T09:07:24.689Z,32352
2017-07-24T09:08:24.724Z,20608
2017-07-24T09:09:24.780Z,16864
2017-07-24T09:10:25.005Z,23200
2017-07-24T09:11:24.860Z,21056
2017-07-24T09:12:24.910Z,20512
2017-07-24T09:13:24.935Z,19968
2017-07-24T09:14:24.943Z,19552
2017-07-24T09:15:25.058Z,17440
2017-07-24T09:16:25.059Z,16320
2017-07-24T09:17:25.130Z,15424
2017-07-24T09:18:25.167Z,15456
2017-07-24T09:19:25.192Z,15392
2017-07-24T09:20:25.288Z,15936
2017-07-24T09:21:25.312Z,16224
2017-07-24T09:22:25.328Z,15616
2017-07-24T09:23:25.417Z,16032
2017-07-24T09:24:25.436Z,16832
2017-07-24T09:25:25.487Z,17312
2017-07-24T09:26:25.529Z,17536
2017-07-24T09:27:25.561Z,17664
2017-07-24T09:28:25.659Z,17664
2017-07-24T09:29:25.655Z,17696
2017-07-24T09:30:25.687Z,17984
2017-07-24T09:31:25.751Z,18272
2017-07-24T09:32:25.816Z,18336
2017-07-24T09:33:25.852Z,17248
2017-07-24T09:34:25.901Z,15712
2017-07-24T09:35:25.955Z,16768
2017-07-24T09:36:26.182Z,15712
2017-07-24T09:37:26.027Z,14784
2017-07-24T09:38:26.043Z,17504
2017-07-24T09:39:26.074Z,17920
2017-07-24T09:40:26.154Z,19040
2017-07-24T09:41:26.192Z,20032
2017-07-24T09:42:26.255Z,19488
2017-07-24T09:43:26.306Z,19232
2017-07-24T09:44:26.389Z,19712
2017-07-24T09:45:26.382Z,19264
2017-07-24T09:46:26.405Z,18880
2017-07-24T09:47:26.466Z,19520
2017-07-24T09:48:26.511Z,19616
2017-07-24T09:49:26.628Z,19808
2017-07-24T09:50:26.576Z,19392
2017-07-24T09:51:26.631Z,19456
2017-07-24T09:52:26.694Z,19456
2017-07-24T09:53:26.724Z,18688
2017-07-24T09:54:26.790Z,19328
2017-07-24T09:55:26.842Z,18688
2017-07-24T09:56:26.858Z,18752
2017-07-24T09:57:26.923Z,19488
2017-07-24T09:58:26.963Z,18976
2017-07-24T09:59:26.986Z,18336
2017-07-24T10:00:27.056Z,18048
2017-07-24T10:01:27.204Z,17632
2017-07-24T10:02:27.142Z,18432
2017-07-24T10:03:27.217Z,18848
2017-07-24T10:04:27.238Z,19008
2017-07-24T10:05:27.283Z,18400
2017-07-24T10:06:27.327Z,17472
2017-07-24T10:07:27.359Z,17824
2017-07-24T10:08:27.453Z,17760
2017-07-24T10:09:27.465Z,18240
2017-07-24T10:10:27.527Z,17920
2017-07-24T10:11:27.590Z,17632
2017-07-24T10:12:27.621Z,17216
2017-07-24T10:13:27.663Z,17312
2017-07-24T10:14:27.703Z,17024
2017-07-24T10:15:27.769Z,17120
2017-07-24T10:16:27.805Z,17952
2017-07-24T10:17:27.836Z,17376
2017-07-24T10:18:27.910Z,16640
2017-07-24T10:19:27.950Z,17472
2017-07-24T10:20:27.988Z,18240
2017-07-24T10:21:28.015Z,18272
2017-07-24T10:22:28.048Z,18176
2017-07-24T10:23:28.117Z,18752
2017-07-24T10:24:28.161Z,18240
2017-07-24T10:25:28.213Z,18048
2017-07-24T10:26:28.222Z,18176
2017-07-24T10:27:28.304Z,17376
2017-07-24T10:28:28.361Z,17216
2017-07-24T10:29:28.401Z,16768
2017-07-24T10:30:28.446Z,16000
2017-07-24T10:31:28.492Z,15232
2017-07-24T10:32:28.518Z,17216
2017-07-24T10:33:28.545Z,17088
2017-07-24T10:34:28.598Z,17152
2017-07-24T10:35:28.660Z,17632
2017-07-24T10:36:28.684Z,17856
2017-07-24T10:37:28.736Z,18432
2017-07-24T10:38:28.799Z,18912
2017-07-24T10:39:28.797Z,17280
2017-07-24T10:40:28.846Z,18048
2017-07-24T10:41:28.907Z,18880
2017-07-24T10:42:28.937Z,17024
2017-07-24T10:43:29.018Z,16512
2017-07-24T10:44:29.052Z,17536
2017-07-24T10:45:29.082Z,16864
2017-07-24T10:46:29.127Z,17152
2017-07-24T10:47:29.213Z,17920
2017-07-24T10:48:29.185Z,18656
2017-07-24T10:49:29.264Z,18560
2017-07-24T10:50:29.308Z,17504
2017-07-24T10:51:29.334Z,16864
2017-07-24T10:52:29.384Z,15232
2017-07-24T10:53:29.504Z,15744
2017-07-24T10:54:29.467Z,16672
2017-07-24T10:55:29.507Z,15488
2017-07-24T10:56:29.558Z,15392
2017-07-24T10:57:29.623Z,14456
2017-07-24T10:58:29.629Z,14036
2017-07-24T10:59:29.670Z,13880
2017-07-24T11:00:29.755Z,13676
2017-07-24T11:01:29.993Z,13564
2017-07-24T11:02:29.825Z,13532
2017-07-24T11:03:30.067Z,13540
2017-07-24T11:04:29.912Z,13680
2017-07-24T11:05:29.937Z,13624
2017-07-24T11:06:30.058Z,13424
2017-07-24T11:07:30.006Z,13240
2017-07-24T11:08:30.080Z,13112
2017-07-24T11:09:30.098Z,13044
2017-07-24T11:10:30.143Z,13064
2017-07-24T11:11:30.225Z,13180
2017-07-24T11:12:30.253Z,13324
2017-07-24T11:13:30.257Z,13400
2017-07-24T11:14:30.305Z,13364
2017-07-24T11:15:30.360Z,13452
2017-07-24T11:16:30.423Z,13376
2017-07-24T11:17:30.527Z,13152
2017-07-24T11:18:30.484Z,12932
2017-07-24T11:19:30.603Z,13084
2017-07-24T11:20:30.594Z,13060
2017-07-24T11:21:30.584Z,12884
2017-07-24T11:22:30.644Z,12788
2017-07-24T11:23:30.908Z,12600
2017-07-24T11:24:30.746Z,12308
2017-07-24T11:25:30.779Z,12096
2017-07-24T11:26:30.832Z,11920
2017-07-24T11:27:30.843Z,11824
2017-07-24T11:28:31.109Z,11672
2017-07-24T11:29:30.962Z,11516
2017-07-24T11:30:31.005Z,11528
2017-07-24T11:31:31.024Z,11600
2017-07-24T11:32:31.077Z,11484
2017-07-24T11:33:31.305Z,11352
2017-07-24T11:34:31.157Z,11292
2017-07-24T11:35:31.200Z,11140
2017-07-24T11:36:31.234Z,11280
2017-07-24T11:37:31.254Z,11224
2017-07-24T11:38:31.300Z,11228
2017-07-24T11:39:31.374Z,11212
2017-07-24T11:40:31.410Z,11184
2017-07-24T11:41:31.433Z,11080
2017-07-24T11:42:31.523Z,11212
2017-07-24T11:43:31.481Z,11468
2017-07-24T11:44:31.542Z,11348
2017-07-24T11:45:31.574Z,11516
2017-07-24T11:46:31.652Z,11328
2017-07-24T11:47:31.695Z,11040
2017-07-24T11:48:31.718Z,10264
2017-07-24T11:49:32.151Z,9912
2017-07-24T11:50:31.815Z,9936
2017-07-24T11:51:31.822Z,9680
2017-07-24T11:52:31.879Z,9532
2017-07-24T11:53:31.948Z,9516
2017-07-24T11:54:31.977Z,9460
2017-07-24T11:55:32.214Z,9680
2017-07-24T11:56:32.041Z,9980
2017-07-24T11:57:32.120Z,10208
2017-07-24T11:58:32.142Z,10460
2017-07-24T11:59:32.190Z,10420
2017-07-24T12:00:32.440Z,10320
2017-07-24T12:01:38.534Z,9892
2017-07-24T12:02:32.638Z,9908
2017-07-24T12:03:32.329Z,10088
2017-07-24T12:04:32.610Z,10196
2017-07-24T12:05:32.583Z,10260
2017-07-24T12:06:32.477Z,9780
2017-07-24T12:07:32.513Z,9448
2017-07-24T12:08:32.553Z,9740
2017-07-24T12:09:32.611Z,9912
2017-07-24T12:10:32.829Z,10024
2017-07-24T12:11:32.648Z,10536
2017-07-24T12:12:32.706Z,10500
2017-07-24T12:13:32.745Z,10412
2017-07-24T12:14:32.790Z,10352
2017-07-24T12:15:32.830Z,10272
2017-07-24T12:16:33.125Z,10260
2017-07-24T12:17:32.909Z,10300
2017-07-24T12:18:33.130Z,10156
2017-07-24T12:19:32.954Z,10144
2017-07-24T12:20:33.019Z,10156
2017-07-24T12:21:33.072Z,9916
2017-07-24T12:22:33.108Z,9824
2017-07-24T12:23:33.132Z,9920
2017-07-24T12:24:33.238Z,9836
2017-07-24T12:25:33.189Z,9556
2017-07-24T12:26:33.289Z,9696
2017-07-24T12:27:33.293Z,9868
2017-07-24T12:28:33.329Z,9404
2017-07-24T12:29:33.363Z,8896
2017-07-24T12:30:33.611Z,8632
2017-07-24T12:31:33.476Z,8504
2017-07-24T12:32:33.529Z,8420
2017-07-24T12:33:33.541Z,8404
2017-07-24T12:34:33.611Z,8328
2017-07-24T12:35:33.607Z,8392
2017-07-24T12:36:33.639Z,8472
2017-07-24T12:37:33.718Z,8492
2017-07-24T12:38:33.730Z,8376
2017-07-24T12:39:33.773Z,8344
2017-07-24T12:40:33.812Z,8296
2017-07-24T12:41:34.077Z,8232
2017-07-24T12:42:33.893Z,8156
2017-07-24T12:43:33.941Z,8156
2017-07-24T12:44:34.138Z,8152
2017-07-24T12:45:34.004Z,8136
2017-07-24T12:46:34.037Z,8088
2017-07-24T12:47:34.108Z,8096
2017-07-24T12:48:34.148Z,7968
2017-07-24T12:49:34.171Z,8008
2017-07-24T12:50:34.345Z,8212
2017-07-24T12:51:34.253Z,8536
2017-07-24T12:52:34.305Z,8472
2017-07-24T12:53:34.367Z,8324
2017-07-24T12:54:34.366Z,8560
2017-07-24T12:55:34.591Z,8668
2017-07-24T12:56:34.470Z,8668
2017-07-24T12:57:34.677Z,8944
2017-07-24T12:58:34.544Z,9340
2017-07-24T12:59:34.548Z,9512
2017-07-24T13:00:34.616Z,9568
2017-07-24T13:01:48.378Z,9784
2017-07-24T13:02:34.676Z,9824
2017-07-24T13:03:34.709Z,9768
2017-07-24T13:04:34.771Z,9568
2017-07-24T13:05:34.811Z,9392
2017-07-24T13:06:34.856Z,9220
2017-07-24T13:07:34.909Z,9100
2017-07-24T13:08:34.878Z,9116
2017-07-24T13:09:34.934Z,9376
2017-07-24T13:10:35.032Z,9300
2017-07-24T13:11:35.007Z,9184
2017-07-24T13:12:35.099Z,9424
2017-07-24T13:13:35.133Z,9284
2017-07-24T13:14:35.163Z,9056
2017-07-24T13:15:35.265Z,9048
2017-07-24T13:16:35.224Z,8792
2017-07-24T13:17:35.324Z,8288
2017-07-24T13:18:35.300Z,8080
2017-07-24T13:19:35.335Z,8020
2017-07-24T13:20:35.413Z,8036
2017-07-24T13:21:35.438Z,8008
2017-07-24T13:22:35.465Z,8020
2017-07-24T13:23:35.738Z,8088
2017-07-24T13:24:35.574Z,8260
2017-07-24T13:25:35.630Z,8428
2017-07-24T13:26:35.623Z,8528
2017-07-24T13:27:35.666Z,8644